createdAt,value
2019-05-19T00:00:59.930Z,9.73
2019-05-19T00:03:29.589Z,9.80
2019-05-19T00:05:59.499Z,10.03
2019-05-19T00:08:29.182Z,10.43
2019-05-19T00:10:58.892Z,12.00
2019-05-19T00:13:28.704Z,10.33
2019-05-19T00:15:58.320Z,11.33
2019-05-19T00:18:28.462Z,9.60
2019-05-19T00:20:58.073Z,10.50
2019-05-19T00:23:28.078Z,10.90
2019-05-19T00:25:57.702Z,9.53
2019-05-19T00:28:27.385Z,11.30
2019-05-19T00:30:57.020Z,10.43
2019-05-19T00:33:26.738Z,9.60
2019-05-19T00:35:56.369Z,9.70
2019-05-19T00:38:26.167Z,10.70
2019-05-19T00:40:55.851Z,10.20
2019-05-19T00:43:25.615Z,9.30
2019-05-19T00:45:55.252Z,10.70
2019-05-19T00:48:24.956Z,9.50
2019-05-19T00:50:54.724Z,9.90
2019-05-19T00:53:24.561Z,10.10
2019-05-19T00:55:54.412Z,10.20
2019-05-19T00:58:26.808Z,11.20
2019-05-19T01:00:56.789Z,10.50
2019-05-19T01:03:26.636Z,9.53
2019-05-19T01:05:56.406Z,11.63
2019-05-19T01:08:26.535Z,10.40
2019-05-19T01:10:56.461Z,11.30
2019-05-19T01:13:26.178Z,10.53
2019-05-19T01:15:55.853Z,9.33
2019-05-19T01:18:25.571Z,10.10
2019-05-19T01:20:55.336Z,10.23
2019-05-19T01:23:25.088Z,10.37
2019-05-19T01:25:54.733Z,10.37
2019-05-19T01:28:24.368Z,10.83
2019-05-19T01:30:54.131Z,9.40
2019-05-19T01:33:23.774Z,12.50
2019-05-19T01:35:53.394Z,9.40
2019-05-19T01:38:23.005Z,9.40
2019-05-19T01:40:52.649Z,9.50
2019-05-19T01:43:22.535Z,11.13
2019-05-19T01:45:52.258Z,9.43
2019-05-19T01:48:21.850Z,9.53
2019-05-19T01:50:51.581Z,10.00
2019-05-19T01:53:22.243Z,10.80
2019-05-19T01:55:52.051Z,10.77
2019-05-19T01:58:21.695Z,9.17
2019-05-19T02:00:51.474Z,10.30
2019-05-19T02:03:21.230Z,8.80
2019-05-19T02:05:50.886Z,9.73
2019-05-19T02:08:20.588Z,10.50
2019-05-19T02:10:50.498Z,9.33
2019-05-19T02:13:20.245Z,10.10
2019-05-19T02:15:49.988Z,10.80
2019-05-19T02:18:19.691Z,9.13
2019-05-19T02:20:49.314Z,8.70
2019-05-19T02:23:19.063Z,9.30
2019-05-19T02:25:48.852Z,8.60
2019-05-19T02:28:18.622Z,8.73
2019-05-19T02:30:48.331Z,8.20
2019-05-19T02:33:18.049Z,8.80
2019-05-19T02:35:47.764Z,8.73
2019-05-19T02:38:17.399Z,12.90
2019-05-19T02:40:50.372Z,8.97
2019-05-19T02:43:22.361Z,10.07
2019-05-19T02:45:55.072Z,9.17
2019-05-19T02:48:26.396Z,8.30
2019-05-19T02:50:56.738Z,7.93
2019-05-19T02:53:27.220Z,8.37
2019-05-19T02:55:57.457Z,7.63
2019-05-19T02:58:27.520Z,8.20
2019-05-19T03:00:57.175Z,7.57
2019-05-19T03:03:26.874Z,8.53
2019-05-19T03:05:56.816Z,8.50
2019-05-19T03:08:26.622Z,8.10
2019-05-19T03:11:15.654Z,7.60
2019-05-19T03:13:45.599Z,8.03
2019-05-19T03:16:15.468Z,7.97
2019-05-19T03:18:45.136Z,7.70
2019-05-19T03:21:14.828Z,7.70
2019-05-19T03:23:44.516Z,9.00
2019-05-19T03:26:14.172Z,7.70
2019-05-19T03:28:43.806Z,7.67
2019-05-19T03:31:15.070Z,8.03
2019-05-19T03:33:46.372Z,9.60
2019-05-19T03:36:15.991Z,9.20
2019-05-19T03:38:45.613Z,9.33
2019-05-19T03:41:15.228Z,8.80
2019-05-19T03:43:44.912Z,8.13
2019-05-19T03:46:14.618Z,8.43
2019-05-19T03:48:44.507Z,7.87
2019-05-19T03:51:29.524Z,7.90
2019-05-19T03:53:45.880Z,8.00
2019-05-19T03:56:15.573Z,10.47
2019-05-19T03:58:45.706Z,9.03
2019-05-19T04:01:15.354Z,7.90
2019-05-19T04:03:45.335Z,8.10
2019-05-19T04:06:15.240Z,9.50
2019-05-19T04:08:44.851Z,8.60
2019-05-19T04:11:14.585Z,8.70
2019-05-19T04:13:44.207Z,9.67
2019-05-19T04:16:13.991Z,9.20
2019-05-19T04:18:43.672Z,8.30
2019-05-19T04:21:13.463Z,9.10
2019-05-19T04:23:43.158Z,9.97
2019-05-19T04:26:12.952Z,8.60
2019-05-19T04:28:42.840Z,8.10
2019-05-19T04:31:12.550Z,8.27
2019-05-19T04:33:42.322Z,8.73
2019-05-19T04:36:12.136Z,8.90
2019-05-19T04:38:41.731Z,9.50
2019-05-19T04:41:11.372Z,8.10
2019-05-19T04:43:41.388Z,8.50
2019-05-19T04:46:11.046Z,8.83
2019-05-19T04:48:40.700Z,10.33
2019-05-19T04:51:10.329Z,8.90
2019-05-19T04:53:39.995Z,9.27
2019-05-19T04:56:09.945Z,10.07
2019-05-19T04:58:39.570Z,9.13
2019-05-19T05:01:09.303Z,8.60
2019-05-19T05:03:38.898Z,9.60
2019-05-19T05:06:08.535Z,9.17
2019-05-19T05:08:38.238Z,8.70
2019-05-19T05:11:07.864Z,9.43
2019-05-19T05:13:37.504Z,9.90
2019-05-19T05:16:07.635Z,8.60
2019-05-19T05:18:37.237Z,11.13
2019-05-19T05:21:06.961Z,9.17
2019-05-19T05:23:36.697Z,8.77
2019-05-19T05:26:06.428Z,10.00
2019-05-19T05:28:36.477Z,9.07
2019-05-19T05:31:06.109Z,9.87
2019-05-19T05:33:35.726Z,9.57
2019-05-19T05:36:05.899Z,10.70
2019-05-19T05:38:35.565Z,13.40
2019-05-19T05:41:05.313Z,8.90
2019-05-19T05:43:34.999Z,10.17
2019-05-19T05:46:04.784Z,10.13
2019-05-19T05:48:34.425Z,10.07
2019-05-19T05:51:04.133Z,9.30
2019-05-19T05:53:33.760Z,10.53
2019-05-19T05:56:03.453Z,9.27
2019-05-19T05:58:33.330Z,9.10
2019-05-19T06:01:03.117Z,9.53
2019-05-19T06:03:32.906Z,9.87
2019-05-19T06:06:02.598Z,11.17
2019-05-19T06:08:32.266Z,9.90
2019-05-19T06:11:02.078Z,9.20
2019-05-19T06:13:32.090Z,9.67
2019-05-19T06:16:01.853Z,10.03
2019-05-19T06:18:31.487Z,9.00
2019-05-19T06:21:01.108Z,8.97
2019-05-19T06:23:30.834Z,10.30
2019-05-19T06:26:00.606Z,8.60
2019-05-19T06:28:30.249Z,9.50
2019-05-19T06:31:00.064Z,10.03
2019-05-19T06:33:29.863Z,10.10
2019-05-19T06:35:59.765Z,9.73
2019-05-19T06:38:29.786Z,9.10
2019-05-19T06:40:59.462Z,9.03
2019-05-19T06:43:29.503Z,8.67
2019-05-19T06:45:59.531Z,9.50
2019-05-19T06:48:29.363Z,8.97
2019-05-19T06:50:58.982Z,8.73
2019-05-19T06:53:28.956Z,8.07
2019-05-19T06:55:59.017Z,10.00
2019-05-19T06:58:28.714Z,8.77
2019-05-19T07:00:59.253Z,8.87
2019-05-19T07:03:29.224Z,8.23
2019-05-19T07:05:58.935Z,10.00
2019-05-19T07:08:28.590Z,9.13
2019-05-19T07:10:58.206Z,10.57
2019-05-19T07:13:28.174Z,8.97
2019-05-19T07:15:57.862Z,7.83
2019-05-19T07:18:27.654Z,9.50
2019-05-19T07:20:57.564Z,8.60
2019-05-19T07:23:28.825Z,8.77
2019-05-19T07:25:59.047Z,8.40
2019-05-19T07:28:28.866Z,7.90
2019-05-19T07:30:58.578Z,10.40
2019-05-19T07:33:28.218Z,10.73
2019-05-19T07:35:58.331Z,10.73
2019-05-19T07:38:29.979Z,12.97
2019-05-19T07:40:59.791Z,8.10
2019-05-19T07:43:29.607Z,7.93
2019-05-19T07:45:59.331Z,11.57
2019-05-19T07:48:28.998Z,8.70
2019-05-19T07:50:58.794Z,13.67
2019-05-19T07:53:41.930Z,11.63
2019-05-19T07:55:59.904Z,14.00
2019-05-19T07:58:29.689Z,9.80
2019-05-19T08:00:59.373Z,7.23
2019-05-19T08:03:29.432Z,9.37
2019-05-19T08:05:59.084Z,10.00
2019-05-19T08:08:28.934Z,10.50
2019-05-19T08:10:58.894Z,7.60
2019-05-19T08:13:28.675Z,6.70
2019-05-19T08:15:58.314Z,9.73
2019-05-19T08:18:28.015Z,9.03
2019-05-19T08:20:57.668Z,9.80
2019-05-19T08:23:27.341Z,7.77
2019-05-19T08:25:57.060Z,7.37
2019-05-19T08:28:26.718Z,6.80
2019-05-19T08:30:56.666Z,7.97
2019-05-19T08:33:26.409Z,8.07
2019-05-19T08:35:56.151Z,8.10
2019-05-19T08:38:25.804Z,7.30
2019-05-19T08:41:14.917Z,6.30
2019-05-19T08:43:44.637Z,6.90
2019-05-19T08:46:14.395Z,6.20
2019-05-19T08:48:44.112Z,5.70
2019-05-19T08:51:13.875Z,5.63
2019-05-19T08:53:43.637Z,5.20
2019-05-19T08:56:13.410Z,6.63
2019-05-19T08:58:49.992Z,7.43
2019-05-19T09:01:21.169Z,5.97
2019-05-19T09:03:50.786Z,5.57
2019-05-19T09:06:20.506Z,6.37
2019-05-19T09:08:50.203Z,5.87
2019-05-19T09:11:19.860Z,5.60
2019-05-19T09:13:49.501Z,5.53
2019-05-19T09:16:19.279Z,5.60
2019-05-19T09:18:48.914Z,5.37
2019-05-19T09:21:38.255Z,5.10
2019-05-19T09:24:07.926Z,5.70
2019-05-19T09:26:37.597Z,4.93
2019-05-19T09:29:07.249Z,6.00
2019-05-19T09:31:36.871Z,5.53
2019-05-19T09:34:06.574Z,5.40
2019-05-19T09:36:36.281Z,5.10
2019-05-19T09:39:07.051Z,5.20
2019-05-19T09:41:37.058Z,4.87
2019-05-19T09:44:06.755Z,6.00
2019-05-19T09:46:36.395Z,5.10
2019-05-19T09:49:24.156Z,5.17
2019-05-19T09:51:53.981Z,4.90
2019-05-19T09:54:23.699Z,8.10
2019-05-19T09:56:53.848Z,5.20
2019-05-19T09:59:23.573Z,4.80
2019-05-19T10:01:53.357Z,4.50
2019-05-19T10:04:23.007Z,4.80
2019-05-19T10:06:52.784Z,3.80
2019-05-19T10:09:45.452Z,5.00
2019-05-19T10:12:15.170Z,5.00
2019-05-19T10:14:44.894Z,4.20
2019-05-19T10:17:14.647Z,4.30
2019-05-19T10:19:44.693Z,4.10
2019-05-19T10:22:14.453Z,5.97
2019-05-19T10:24:57.824Z,6.10
2019-05-19T10:27:15.570Z,5.33
2019-05-19T10:30:08.055Z,4.80
2019-05-19T10:32:37.812Z,4.73
2019-05-19T10:35:08.330Z,4.60
2019-05-19T10:37:38.139Z,4.23
2019-05-19T10:40:08.678Z,4.27
2019-05-19T10:42:38.301Z,5.07
2019-05-19T10:45:10.061Z,4.57
2019-05-19T10:47:40.269Z,4.30
2019-05-19T10:50:10.587Z,4.70
2019-05-19T10:52:40.310Z,4.90
2019-05-19T10:55:10.179Z,5.23
2019-05-19T10:57:39.794Z,4.47
2019-05-19T11:00:09.850Z,4.80
2019-05-19T11:02:39.617Z,4.80
2019-05-19T11:05:11.284Z,4.83
2019-05-19T11:07:40.843Z,4.57
2019-05-19T11:10:10.624Z,4.97
2019-05-19T11:12:40.649Z,4.53
2019-05-19T11:15:10.515Z,5.00
2019-05-19T11:17:40.211Z,5.10
2019-05-19T11:20:10.418Z,5.47
2019-05-19T11:22:40.137Z,4.93
2019-05-19T11:25:09.937Z,5.47
2019-05-19T11:27:39.923Z,5.80
2019-05-19T11:30:09.835Z,4.93
2019-05-19T11:32:39.570Z,5.47
2019-05-19T11:35:09.371Z,4.90
2019-05-19T11:37:39.053Z,5.77
2019-05-19T11:40:08.862Z,5.27
2019-05-19T11:42:38.477Z,5.10
2019-05-19T11:45:08.366Z,5.43
2019-05-19T11:47:38.103Z,5.20
2019-05-19T11:50:08.018Z,5.43
2019-05-19T11:52:37.728Z,4.83
2019-05-19T11:55:07.518Z,5.67
2019-05-19T11:57:37.222Z,5.30
2019-05-19T12:00:07.787Z,5.47
2019-05-19T12:02:37.546Z,6.03
2019-05-19T12:05:07.437Z,5.00
2019-05-19T12:07:37.127Z,5.73
2019-05-19T12:10:06.920Z,5.47
2019-05-19T12:12:36.595Z,5.40
2019-05-19T12:15:07.671Z,6.50
2019-05-19T12:17:37.372Z,8.57
2019-05-19T12:20:07.265Z,8.50
2019-05-19T12:22:36.964Z,8.20
2019-05-19T12:25:07.038Z,7.37
2019-05-19T12:27:36.686Z,7.60
2019-05-19T12:30:07.982Z,7.50
2019-05-19T12:32:37.688Z,8.20
2019-05-19T12:35:07.469Z,7.63
2019-05-19T12:37:37.421Z,7.30
2019-05-19T12:40:07.391Z,7.33
2019-05-19T12:42:37.034Z,7.40
2019-05-19T12:45:07.926Z,6.60
2019-05-19T12:47:37.639Z,6.67
2019-05-19T12:50:09.126Z,6.67
2019-05-19T12:52:38.767Z,6.60
2019-05-19T12:55:08.690Z,6.50
2019-05-19T12:57:38.355Z,6.97
2019-05-19T13:00:08.641Z,6.53
2019-05-19T13:02:38.389Z,6.37
2019-05-19T13:05:08.557Z,6.80
2019-05-19T13:07:38.239Z,6.43
2019-05-19T13:10:08.632Z,8.70
2019-05-19T13:12:38.513Z,6.60
2019-05-19T13:15:08.750Z,6.33
2019-05-19T13:17:38.505Z,6.70
2019-05-19T13:20:08.467Z,6.03
2019-05-19T13:22:38.280Z,7.10
2019-05-19T13:25:08.711Z,6.90
2019-05-19T13:27:38.498Z,6.80
2019-05-19T13:30:09.398Z,6.50
2019-05-19T13:32:39.183Z,6.70
2019-05-19T13:35:08.899Z,6.17
2019-05-19T13:37:38.591Z,6.30
2019-05-19T13:40:09.114Z,6.93
2019-05-19T13:42:38.855Z,6.27
2019-05-19T13:45:09.438Z,5.80
2019-05-19T13:47:39.203Z,6.10
2019-05-19T13:50:09.892Z,6.20
2019-05-19T13:52:39.552Z,6.70
2019-05-19T13:55:09.687Z,9.00
2019-05-19T13:57:39.643Z,6.87
2019-05-19T14:00:10.545Z,7.13
2019-05-19T14:02:40.511Z,6.87
2019-05-19T14:05:29.522Z,7.27
2019-05-19T14:07:59.267Z,7.10
2019-05-19T14:10:28.945Z,7.97
2019-05-19T14:12:58.634Z,8.07
2019-05-19T14:15:28.395Z,7.43
2019-05-19T14:17:58.167Z,8.03
2019-05-19T14:20:27.832Z,8.80
2019-05-19T14:22:57.586Z,7.97
2019-05-19T14:25:27.192Z,8.37
2019-05-19T14:27:56.903Z,8.30
2019-05-19T14:30:26.649Z,7.77
2019-05-19T14:32:57.762Z,8.23
2019-05-19T14:35:27.507Z,7.90
2019-05-19T14:37:57.220Z,7.87
2019-05-19T14:40:27.006Z,8.17
2019-05-19T14:43:01.312Z,8.67
2019-05-19T14:45:31.053Z,8.60
2019-05-19T14:48:00.746Z,8.23
2019-05-19T14:50:30.856Z,8.40
2019-05-19T14:53:00.577Z,7.87
2019-05-19T14:55:30.214Z,7.50
2019-05-19T14:57:59.969Z,7.53
2019-05-19T15:00:29.741Z,6.97
2019-05-19T15:02:59.445Z,8.07
2019-05-19T15:05:29.077Z,7.77
2019-05-19T15:07:58.796Z,7.10
2019-05-19T15:10:28.458Z,6.93
2019-05-19T15:12:58.165Z,6.43
2019-05-19T15:15:47.218Z,6.73
2019-05-19T15:18:16.865Z,6.83
2019-05-19T15:20:46.815Z,7.10
2019-05-19T15:23:16.663Z,6.70
2019-05-19T15:25:46.305Z,11.17
2019-05-19T15:28:15.959Z,7.90
2019-05-19T15:30:46.040Z,6.67
2019-05-19T15:33:15.695Z,9.13
2019-05-19T15:35:45.551Z,6.90
2019-05-19T15:38:15.219Z,7.20
2019-05-19T15:40:44.907Z,7.13
2019-05-19T15:43:14.930Z,7.03
2019-05-19T15:45:44.609Z,7.07
2019-05-19T15:48:14.336Z,6.90
2019-05-19T15:50:44.058Z,7.43
2019-05-19T15:53:13.696Z,7.00
2019-05-19T15:55:43.391Z,7.30
2019-05-19T15:58:16.552Z,7.47
2019-05-19T16:00:44.453Z,7.77
2019-05-19T16:03:14.095Z,7.60
2019-05-19T16:05:43.707Z,7.43
2019-05-19T16:08:13.478Z,7.30
2019-05-19T16:10:43.281Z,7.10
2019-05-19T16:13:12.997Z,8.10
2019-05-19T16:15:42.706Z,7.30
2019-05-19T16:18:12.393Z,7.60
2019-05-19T16:20:45.106Z,7.53
2019-05-19T16:23:14.802Z,7.53
2019-05-19T16:25:44.432Z,7.87
2019-05-19T16:28:14.104Z,7.30
2019-05-19T16:30:43.843Z,7.90
2019-05-19T16:33:13.947Z,7.77
2019-05-19T16:35:44.094Z,10.50
2019-05-19T16:38:14.235Z,23.83
2019-05-19T16:40:44.431Z,13.23
2019-05-19T16:43:14.781Z,10.33
2019-05-19T16:45:44.871Z,10.27
2019-05-19T16:48:14.584Z,12.17
2019-05-19T16:50:44.305Z,12.87
2019-05-19T16:53:13.915Z,12.63
2019-05-19T16:55:43.710Z,9.80
2019-05-19T16:58:21.237Z,8.57
2019-05-19T17:00:44.970Z,8.37
2019-05-19T17:03:14.765Z,7.83
2019-05-19T17:05:44.497Z,11.40
2019-05-19T17:08:14.319Z,8.80
2019-05-19T17:10:44.088Z,9.70
2019-05-19T17:13:14.055Z,9.20
2019-05-19T17:15:43.793Z,10.63
2019-05-19T17:18:13.580Z,11.07
2019-05-19T17:20:43.384Z,11.67
2019-05-19T17:23:13.164Z,8.80
2019-05-19T17:25:42.805Z,8.97
2019-05-19T17:28:12.428Z,13.60
2019-05-19T17:30:42.179Z,11.07
2019-05-19T17:33:11.876Z,7.50
2019-05-19T17:35:42.019Z,8.43
2019-05-19T17:38:12.187Z,8.90
2019-05-19T17:40:41.926Z,8.27
2019-05-19T17:43:11.612Z,11.50
2019-05-19T17:45:41.330Z,8.67
2019-05-19T17:48:25.360Z,10.00
2019-05-19T17:50:42.344Z,13.43
2019-05-19T17:53:12.118Z,10.17
2019-05-19T17:55:43.843Z,11.40
2019-05-19T17:58:13.624Z,18.20
2019-05-19T18:00:44.208Z,11.73
2019-05-19T18:03:14.114Z,12.33
2019-05-19T18:05:43.886Z,10.70
2019-05-19T18:08:13.729Z,10.87
2019-05-19T18:10:43.490Z,11.17
2019-05-19T18:13:13.260Z,11.97
2019-05-19T18:15:43.032Z,14.07
2019-05-19T18:18:12.681Z,13.47
2019-05-19T18:20:42.324Z,10.53
2019-05-19T18:23:12.011Z,16.20
2019-05-19T18:25:41.677Z,12.27
2019-05-19T18:28:11.559Z,9.43
2019-05-19T18:30:41.171Z,11.07
2019-05-19T18:33:10.834Z,9.40
2019-05-19T18:35:40.498Z,13.00
2019-05-19T18:38:10.270Z,10.00
2019-05-19T18:40:40.154Z,9.27
2019-05-19T18:43:10.211Z,9.00
2019-05-19T18:45:40.046Z,10.10
2019-05-19T18:48:10.166Z,10.23
2019-05-19T18:50:39.965Z,8.70
2019-05-19T18:53:09.699Z,10.00
2019-05-19T18:55:39.933Z,8.60
2019-05-19T18:58:09.796Z,9.27
2019-05-19T19:00:41.110Z,9.90
2019-05-19T19:03:30.604Z,8.50
2019-05-19T19:06:00.570Z,8.00
2019-05-19T19:08:30.330Z,8.67
2019-05-19T19:11:00.175Z,12.40
2019-05-19T19:13:30.967Z,7.80
2019-05-19T19:16:00.695Z,7.60
2019-05-19T19:18:30.948Z,8.10
2019-05-19T19:21:00.811Z,10.60
2019-05-19T19:23:30.596Z,8.87
2019-05-19T19:26:00.411Z,8.20
2019-05-19T19:28:31.658Z,9.93
2019-05-19T19:31:01.363Z,10.83
2019-05-19T19:33:33.726Z,16.60
2019-05-19T19:36:04.956Z,9.07
2019-05-19T19:38:34.699Z,8.13
2019-05-19T19:41:06.519Z,9.63
2019-05-19T19:43:36.595Z,11.17
2019-05-19T19:46:06.491Z,8.93
2019-05-19T19:48:36.330Z,7.23
2019-05-19T19:51:06.200Z,6.93
2019-05-19T19:53:35.932Z,9.30
2019-05-19T19:56:05.875Z,10.03
2019-05-19T19:58:35.532Z,10.30
2019-05-19T20:01:05.225Z,6.70
2019-05-19T20:03:39.764Z,6.70
2019-05-19T20:06:06.286Z,7.93
2019-05-19T20:08:35.946Z,11.07
2019-05-19T20:11:06.104Z,9.27
2019-05-19T20:13:35.741Z,6.77
2019-05-19T20:16:05.538Z,6.87
2019-05-19T20:18:35.160Z,6.93
2019-05-19T20:21:24.224Z,7.07
2019-05-19T20:23:53.928Z,6.50
2019-05-19T20:26:24.111Z,7.27
2019-05-19T20:28:53.992Z,6.63
2019-05-19T20:31:26.600Z,7.90
2019-05-19T20:33:56.322Z,6.37
2019-05-19T20:36:26.461Z,11.37
2019-05-19T20:38:56.550Z,6.23
2019-05-19T20:41:26.360Z,6.73
2019-05-19T20:43:55.971Z,5.90
2019-05-19T20:46:25.982Z,6.43
2019-05-19T20:48:56.415Z,6.80
2019-05-19T20:51:26.202Z,6.80
2019-05-19T20:53:56.126Z,6.53
2019-05-19T20:56:25.863Z,5.50
2019-05-19T20:58:55.794Z,7.30
2019-05-19T21:01:25.732Z,6.63
2019-05-19T21:03:58.675Z,6.43
2019-05-19T21:06:29.092Z,6.27
2019-05-19T21:08:59.368Z,6.30
2019-05-19T21:11:30.147Z,5.80
2019-05-19T21:14:05.168Z,6.73
2019-05-19T21:16:35.201Z,5.87
2019-05-19T21:19:05.588Z,5.70
2019-05-19T21:21:35.522Z,6.60
2019-05-19T21:24:05.597Z,5.90
2019-05-19T21:26:35.754Z,5.87
2019-05-19T21:29:05.777Z,6.27
2019-05-19T21:31:35.449Z,6.40
2019-05-19T21:34:05.213Z,6.50
2019-05-19T21:36:34.931Z,6.30
2019-05-19T21:39:06.205Z,6.40
2019-05-19T21:41:35.933Z,6.40
2019-05-19T21:44:05.604Z,6.83
2019-05-19T21:46:35.255Z,6.53
2019-05-19T21:49:04.944Z,8.03
2019-05-19T21:51:34.718Z,9.43
2019-05-19T21:54:04.886Z,5.90
2019-05-19T21:56:34.853Z,7.47
2019-05-19T21:59:04.593Z,6.77
2019-05-19T22:01:34.811Z,6.47
2019-05-19T22:04:04.474Z,6.40
2019-05-19T22:06:35.815Z,6.80
2019-05-19T22:09:06.653Z,6.93
2019-05-19T22:11:36.374Z,6.80
2019-05-19T22:14:06.163Z,6.50
2019-05-19T22:16:35.945Z,6.30
2019-05-19T22:19:24.914Z,6.33
2019-05-19T22:21:54.630Z,6.53
2019-05-19T22:24:24.323Z,6.70
2019-05-19T22:26:53.975Z,7.00
2019-05-19T22:29:23.657Z,6.97
2019-05-19T22:31:53.357Z,6.40
2019-05-19T22:34:23.056Z,6.80
2019-05-19T22:36:53.038Z,6.90
2019-05-19T22:39:22.752Z,6.63
2019-05-19T22:41:52.350Z,6.53
2019-05-19T22:44:22.374Z,7.03
2019-05-19T22:46:52.170Z,6.60
2019-05-19T22:49:21.904Z,6.50
2019-05-19T22:51:51.502Z,6.50
2019-05-19T22:54:21.514Z,6.80
2019-05-19T22:56:51.187Z,7.00
2019-05-19T22:59:20.762Z,6.67
2019-05-19T23:01:52.043Z,6.50
2019-05-19T23:04:21.887Z,6.60
2019-05-19T23:06:51.910Z,8.57
2019-05-19T23:09:21.543Z,6.17
2019-05-19T23:11:51.188Z,6.97
2019-05-19T23:14:20.820Z,7.20
2019-05-19T23:16:50.564Z,7.03
2019-05-19T23:19:20.663Z,6.70
2019-05-19T23:21:50.319Z,6.60
2019-05-19T23:24:20.032Z,6.70
2019-05-19T23:26:50.095Z,7.00
2019-05-19T23:29:20.115Z,7.00
2019-05-19T23:31:50.026Z,6.90
2019-05-19T23:34:19.780Z,6.50
2019-05-19T23:36:49.418Z,6.63
2019-05-19T23:39:19.103Z,7.10
2019-05-19T23:41:48.746Z,6.83
2019-05-19T23:44:18.448Z,7.13
2019-05-19T23:46:48.087Z,7.10
2019-05-19T23:49:17.702Z,6.97
2019-05-19T23:51:47.405Z,7.50
2019-05-19T23:54:17.171Z,7.60
2019-05-19T23:56:47.261Z,7.50
2019-05-19T23:59:16.872Z,7.40
